Tottori, Japan
Current Conditions -  °F | °C
As of 12:00 PM on Monday 24 Nov 2014 (Local Time) from RJOR Reporting Station
Scattered Clouds Scattered Clouds  
Wind Chill: 66°   Ceiling: Unl
Heat Index: 66°   Visibility: 6mi
Dew Point: 45°   Wind: 5mph
Humidity: 46%   Direction: 150°SSE
Pressure: 30.09"   Gusts: NA
Location:  35.5°N, 134.24°E
Report Text: RJOR 240300Z 15004KT 090V200 9999 FEW045 SCT/// 19/07 Q1019
Loading
Personal Weather Stations






























Interactive Weather Map New forecast layout! Learn more

10-Day Weather Forecast

Advertisements
Track Severe Weather on mobile